Monday, December 18, 2017, 5:16 PM EST
Back to Local

KMTP, Montauk Airport

Location: Montauk, NY, United States Lat: 41.067
Local Time: 5:16 PM EST (22:16 GMT) Lon: -71.917
Time Zone: US/Eastern Elev: 6 ft

Show me the last for .
Show Decoded

2017-12-18 15:54 METAR KMTP 182054Z AUTO 36007KT 06/06 A2996 RMK AO1 SLP143 P0007 60008 T00610056
                 56021 =
2017-12-18 14:54 METAR KMTP 181954Z AUTO VRB03KT 08/07 A2996 RMK AO1 SLP146 T00780072 =
2017-12-18 13:54 METAR KMTP 181854Z AUTO 14003KT 07/06 A2998 RMK AO1 SLP150 P0001 T00720061 =
2017-12-18 12:54 METAR KMTP 181754Z AUTO 00000KT 07/05 A3002 RMK AO1 SLP164 T00720050 10072 20033
                 56035 =
2017-12-18 11:54 METAR KMTP 181654Z AUTO 00000KT 07/04 A3004 RMK AO1 SLP173 T00720039 =
2017-12-18 10:54 METAR KMTP 181554Z AUTO VRB04KT 07/02 A3008 RMK AO1 SLP186 T00670022 =
2017-12-18 09:54 METAR KMTP 181454Z AUTO 12004KT 07/02 A3012 RMK AO1 SLP199 T00720022 56017 =
2017-12-18 08:54 METAR KMTP 181354Z AUTO 12003KT 06/01 A3013 RMK AO1 SLP202 T00610006 =
2017-12-18 07:54 METAR KMTP 181254Z AUTO 09003KT 04/M02 A3016 RMK AO1 SLP211 T00441017 =
2017-12-18 06:54 METAR KMTP 181154Z AUTO 00000KT 03/M03 A3017 RMK AO1 SLP216 T00331028 10033
                 20011 55009 =
2017-12-18 05:54 METAR KMTP 181054Z AUTO 00000KT 03/M05 A3017 RMK AO1 SLP215 T00281050 =
2017-12-18 04:54 METAR KMTP 180954Z AUTO 00000KT 02/M07 A3018 RMK AO1 SLP220 T00221067 =
2017-12-18 03:54 METAR KMTP 180854Z AUTO 00000KT 02/M07 A3020 RMK AO1 SLP225 T00221072 58006 =
2017-12-18 02:54 METAR KMTP 180754Z AUTO VRB03KT 02/M09 A3021 RMK AO1 SLP230 T00171089 =
2017-12-18 01:54 METAR KMTP 180654Z AUTO 00000KT 02/M09 A3023 RMK AO1 SLP236 T00171094 =
2017-12-18 00:54 METAR KMTP 180554Z AUTO 06004KT 01/M11 A3021 RMK AO1 SLP231 T00111111 10017
                 20011 58019 =
2017-12-17 23:54 METAR KMTP 180454Z AUTO 03005KT 01/M12 A3024 RMK AO1 SLP239 T00111117 400171011
                 =
2017-12-17 22:54 METAR KMTP 180354Z AUTO 05003KT 01/M12 A3026 RMK AO1 SLP247 T00111117 =
2017-12-17 21:54 METAR KMTP 180254Z AUTO VRB03KT 01/M12 A3027 RMK AO1 SLP250 T00111117 58003 =
2017-12-17 20:54 METAR KMTP 180154Z AUTO 35006KT 01/M13 A3029 RMK AO1 SLP256 T00111128 =
2017-12-17 19:54 METAR KMTP 180054Z AUTO 34007KT 02/M13 A3029 RMK AO1 SLP255 T00171133 =
2017-12-17 18:54 METAR KMTP 172354Z AUTO 32007KT 01/M13 A3028 RMK AO1 SLP253 T00111128 10017
                 20011 51009 =
2017-12-17 17:54 METAR KMTP 172254Z AUTO 33006KT 01/M11 A3027 RMK AO1 SLP251 T00111111 =

Support USWX by starting your Amazon purchase here.